Terminal Aerodrome Forecast
Issued by NWS

Home | Current Version | Previous Version | Text Only | Print | Product List | Glossary On
Versions: 1 2 3 4 5 6 7 8 9 10 11 12
000
FTUS42 TJSJ 201142
TAFIST
TAF
TIST 201142Z 2012/2112 10009KT P6SM VCSH FEW017
     FM201400 12013KT P6SM VCSH SCT025
     FM202300 08009KT P6SM VCSH SCT025=

USA.gov is the U.S. government's official web portal to all federal, state and local government web resources and services.